createdAt,value
2016-02-29T00:00:19.105Z,15.02
2016-02-29T00:01:19.076Z,15
2016-02-29T00:02:19.079Z,15.01
2016-02-29T00:03:19.051Z,14.98
2016-02-29T00:04:19.037Z,14.98
2016-02-29T00:19:47.297Z,14.87
2016-02-29T00:20:47.269Z,14.87
2016-02-29T00:21:47.255Z,14.75
2016-02-29T00:22:47.227Z,14.79
2016-02-29T00:23:47.214Z,14.89
2016-02-29T00:24:47.216Z,14.94
2016-02-29T00:25:47.172Z,14.85
2016-02-29T00:26:47.174Z,14.8
2016-02-29T00:27:47.147Z,14.7
2016-02-29T00:28:47.134Z,14.74
2016-02-29T00:29:46.954Z,14.82
2016-02-29T00:30:46.973Z,14.83
2016-02-29T00:31:46.928Z,14.74
2016-02-29T00:32:47.056Z,14.82
2016-02-29T00:49:51.991Z,14.64
2016-02-29T00:50:51.979Z,14.67
2016-02-29T00:51:51.966Z,14.67
2016-02-29T00:52:51.937Z,14.67
2016-02-29T00:53:51.924Z,14.7
2016-02-29T00:54:51.896Z,14.66
2016-02-29T00:55:51.882Z,14.63
2016-02-29T00:56:51.870Z,14.63
2016-02-29T00:57:51.857Z,14.64
2016-02-29T00:58:51.829Z,14.57
2016-02-29T00:59:51.815Z,14.69
2016-02-29T01:00:51.803Z,14.57
2016-02-29T01:01:51.789Z,14.6
2016-02-29T01:02:51.761Z,14.57
2016-02-29T01:03:51.764Z,14.6
2016-02-29T01:19:50.807Z,14.56
2016-02-29T01:20:50.793Z,14.46
2016-02-29T01:21:50.625Z,14.53
2016-02-29T01:22:50.768Z,14.45
2016-02-29T01:23:50.740Z,14.44
2016-02-29T01:24:50.711Z,14.45
2016-02-29T01:25:50.713Z,14.46
2016-02-29T01:26:50.701Z,14.48
2016-02-29T01:27:50.657Z,14.36
2016-02-29T01:28:50.660Z,14.39
2016-02-29T01:29:50.630Z,14.36
2016-02-29T01:30:50.617Z,14.41
2016-02-29T01:31:50.604Z,14.39
2016-02-29T01:32:50.576Z,14.34
2016-02-29T01:33:50.578Z,14.36
2016-02-29T01:48:48.119Z,14.12
2016-02-29T01:49:48.107Z,14.19
2016-02-29T01:50:48.093Z,14.15
2016-02-29T01:51:48.065Z,14.11
2016-02-29T01:52:48.052Z,14.05
2016-02-29T01:53:48.024Z,14.12
2016-02-29T01:54:48.011Z,14.2
2016-02-29T01:55:47.998Z,14.01
2016-02-29T01:56:47.969Z,14.05
2016-02-29T01:57:47.972Z,14.15
2016-02-29T01:58:47.943Z,14.16
2016-02-29T01:59:47.930Z,14.16
2016-02-29T02:00:47.899Z,14.11
2016-02-29T02:01:47.887Z,14.03
2016-02-29T02:02:47.844Z,14.02
2016-02-29T02:03:47.800Z,14.05
2016-02-29T02:18:32.524Z,13.9
2016-02-29T02:19:32.478Z,13.9
2016-02-29T02:20:32.465Z,13.91
2016-02-29T02:21:32.452Z,13.94
2016-02-29T02:22:32.424Z,13.9
2016-02-29T02:23:32.442Z,13.95
2016-02-29T02:24:32.382Z,13.88
2016-02-29T02:25:32.401Z,13.84
2016-02-29T02:26:32.356Z,13.91
2016-02-29T02:27:32.344Z,13.9
2016-02-29T02:28:32.330Z,13.9
2016-02-29T02:29:32.302Z,13.84
2016-02-29T02:30:32.288Z,13.93
2016-02-29T02:31:32.261Z,13.9
2016-02-29T02:32:32.264Z,13.88
2016-02-29T02:48:29.915Z,13.88
2016-02-29T02:49:29.902Z,13.73
2016-02-29T02:50:29.890Z,13.84
2016-02-29T02:51:29.861Z,13.7
2016-02-29T02:52:29.848Z,13.79
2016-02-29T02:53:29.835Z,13.81
2016-02-29T02:54:29.806Z,13.68
2016-02-29T02:55:29.809Z,13.66
2016-02-29T02:56:29.765Z,13.68
2016-02-29T02:57:29.752Z,13.81
2016-02-29T02:58:29.756Z,13.69
2016-02-29T02:59:29.711Z,13.63
2016-02-29T03:00:29.698Z,13.73
2016-02-29T03:01:29.700Z,13.75
2016-02-29T03:02:29.672Z,13.68
2016-02-29T03:03:29.659Z,13.69
2016-02-29T03:19:48.202Z,13.5
2016-02-29T03:20:48.189Z,13.51
2016-02-29T03:21:48.160Z,13.53
2016-02-29T03:22:48.162Z,13.57
2016-02-29T03:23:48.135Z,13.6
2016-02-29T03:24:48.106Z,13.5
2016-02-29T03:25:48.109Z,13.45
2016-02-29T03:26:48.080Z,13.48
2016-02-29T03:27:48.051Z,13.42
2016-02-29T03:28:48.054Z,13.53
2016-02-29T03:29:48.026Z,13.55
2016-02-29T03:30:47.998Z,13.54
2016-02-29T03:31:47.984Z,13.44
2016-02-29T03:32:47.972Z,13.51
2016-02-29T03:33:47.958Z,13.48
2016-02-29T03:49:22.174Z,13.39
2016-02-29T03:50:22.160Z,13.4
2016-02-29T03:51:22.132Z,13.37
2016-02-29T03:52:22.118Z,13.35
2016-02-29T03:53:22.107Z,13.32
2016-02-29T03:54:22.093Z,13.31
2016-02-29T03:55:22.065Z,13.27
2016-02-29T03:56:22.036Z,13.28
2016-02-29T03:57:22.039Z,13.32
2016-02-29T03:58:21.995Z,13.35
2016-02-29T03:59:21.982Z,13.28
2016-02-29T04:00:21.969Z,13.32
2016-02-29T04:01:21.956Z,13.35
2016-02-29T04:02:21.943Z,13.25
2016-02-29T04:03:21.931Z,13.21
2016-02-29T04:18:51.127Z,13.2
2016-02-29T04:19:51.066Z,13.25
2016-02-29T04:20:51.069Z,13.21
2016-02-29T04:21:51.041Z,13.14
2016-02-29T04:22:51.012Z,13.19
2016-02-29T04:23:51.015Z,13.16
2016-02-29T04:24:50.986Z,13.21
2016-02-29T04:25:50.989Z,13.11
2016-02-29T04:26:50.960Z,13.19
2016-02-29T04:27:50.917Z,13.19
2016-02-29T04:28:50.905Z,13.16
2016-02-29T04:29:50.876Z,13.16
2016-02-29T04:30:50.879Z,13.17
2016-02-29T04:31:50.850Z,13.17
2016-02-29T04:32:50.837Z,13.17
2016-02-29T04:48:30.021Z,13.14
2016-02-29T04:49:29.992Z,13.13
2016-02-29T04:50:29.979Z,13.11
2016-02-29T04:51:29.950Z,13.1
2016-02-29T04:52:29.953Z,13.16
2016-02-29T04:53:29.925Z,13.09
2016-02-29T04:54:29.896Z,13.03
2016-02-29T04:55:29.867Z,13.06
2016-02-29T04:56:29.870Z,13.09
2016-02-29T04:57:29.858Z,13.06
2016-02-29T04:58:29.829Z,13.1
2016-02-29T04:59:29.800Z,12.98
2016-02-29T05:00:29.771Z,12.96
2016-02-29T05:01:29.775Z,12.98
2016-02-29T05:02:29.746Z,13.02
2016-02-29T05:03:29.749Z,12.96
2016-02-29T05:19:37.997Z,13.4
2016-02-29T05:20:37.969Z,13.58
2016-02-29T05:21:37.972Z,13.58
2016-02-29T05:22:37.942Z,13.63
2016-02-29T05:23:37.914Z,13.65
2016-02-29T05:24:37.902Z,13.84
2016-02-29T05:25:37.904Z,13.87
2016-02-29T05:26:37.875Z,13.9
2016-02-29T05:27:37.863Z,14.06
2016-02-29T05:28:37.834Z,14.13
2016-02-29T05:29:37.821Z,14.23
2016-02-29T05:30:37.808Z,14.28
2016-02-29T05:31:37.826Z,14.41
2016-02-29T05:32:37.798Z,14.49
2016-02-29T05:33:37.770Z,14.66
2016-02-29T05:48:36.779Z,15.88
2016-02-29T05:49:36.751Z,16.04
2016-02-29T05:50:36.737Z,16.08
2016-02-29T05:51:36.725Z,16.18
2016-02-29T05:52:36.712Z,16.14
2016-02-29T05:53:36.698Z,16.33
2016-02-29T05:54:36.686Z,16.3
2016-02-29T05:55:36.656Z,16.32
2016-02-29T05:56:36.675Z,16.44
2016-02-29T05:57:36.576Z,16.42
2016-02-29T05:58:36.670Z,16.44
2016-02-29T05:59:36.630Z,16.55
2016-02-29T06:00:37.151Z,16.48
2016-02-29T06:01:36.585Z,16.54
2016-02-29T06:02:36.588Z,16.52
2016-02-29T06:03:36.575Z,16.54
2016-02-29T06:18:55.546Z,16.47
2016-02-29T06:19:55.501Z,16.32
2016-02-29T06:20:55.472Z,16.29
2016-02-29T06:21:55.474Z,16.29
2016-02-29T06:22:55.462Z,16.16
2016-02-29T06:23:55.449Z,16.13
2016-02-29T06:24:55.437Z,16.13
2016-02-29T06:25:55.407Z,16.14
2016-02-29T06:26:55.395Z,16.14
2016-02-29T06:27:55.365Z,16.1
2016-02-29T06:28:55.415Z,16
2016-02-29T06:29:55.356Z,16.06
2016-02-29T06:30:55.328Z,16
2016-02-29T06:31:55.314Z,15.99
2016-02-29T06:32:55.317Z,15.84
2016-02-29T06:47:59.795Z,16.06
2016-02-29T06:48:59.766Z,16
2016-02-29T06:49:59.769Z,15.96
2016-02-29T06:50:59.740Z,15.98
2016-02-29T06:51:59.712Z,16.07
2016-02-29T06:52:59.699Z,15.98
2016-02-29T06:53:59.701Z,16.02
2016-02-29T06:54:59.673Z,15.98
2016-02-29T06:55:59.645Z,16.04
2016-02-29T06:56:59.648Z,16.11
2016-02-29T06:57:59.618Z,16.04
2016-02-29T06:58:59.606Z,16.1
2016-02-29T06:59:59.608Z,16.1
2016-02-29T07:00:59.580Z,16.16
2016-02-29T07:01:59.567Z,16.16
2016-02-29T07:02:59.554Z,16.18
2016-02-29T07:18:15.188Z,16.14
2016-02-29T07:19:15.191Z,16.16
2016-02-29T07:20:15.147Z,16.17
2016-02-29T07:21:15.133Z,16.17
2016-02-29T07:22:15.136Z,16.21
2016-02-29T07:23:15.107Z,16.25
2016-02-29T07:24:15.079Z,16.29
2016-02-29T07:25:15.113Z,16.29
2016-02-29T07:26:15.068Z,16.36
2016-02-29T07:27:15.041Z,16.3
2016-02-29T07:28:15.027Z,16.33
2016-02-29T07:29:15.015Z,16.34
2016-02-29T07:30:15.001Z,16.39
2016-02-29T07:31:14.989Z,16.37
2016-02-29T07:32:14.976Z,16.48
2016-02-29T07:33:14.962Z,16.48
2016-02-29T07:47:52.831Z,16.67
2016-02-29T07:48:52.819Z,16.74
2016-02-29T07:49:52.790Z,16.74
2016-02-29T07:50:52.777Z,16.8
2016-02-29T07:51:52.763Z,16.85
2016-02-29T07:52:52.766Z,16.95
2016-02-29T07:53:52.738Z,17.03
2016-02-29T07:54:52.725Z,17.15
2016-02-29T07:55:52.712Z,17.32
2016-02-29T07:56:52.699Z,17.35
2016-02-29T07:57:52.687Z,17.38
2016-02-29T07:58:52.674Z,17.42
2016-02-29T07:59:52.676Z,17.42
2016-02-29T08:00:52.648Z,17.45
2016-02-29T08:01:52.634Z,17.43
2016-02-29T08:02:52.621Z,17.42
2016-02-29T08:03:52.608Z,17.58
2016-02-29T08:04:52.611Z,17.66
2016-02-29T08:17:20.065Z,19.35
2016-02-29T08:18:20.036Z,19.53
2016-02-29T08:19:20.024Z,19.57
2016-02-29T08:20:20.011Z,19.72
2016-02-29T08:21:20.029Z,19.87
2016-02-29T08:22:20.001Z,19.92
2016-02-29T08:23:19.987Z,19.98
2016-02-29T08:24:19.960Z,20.05
2016-02-29T08:25:19.978Z,20.18
2016-02-29T08:26:19.949Z,20.34
2016-02-29T08:27:19.936Z,20.38
2016-02-29T08:28:19.924Z,20.42
2016-02-29T08:29:19.926Z,20.48
2016-02-29T08:30:19.928Z,20.71
2016-02-29T08:31:19.900Z,20.72
2016-02-29T08:32:19.904Z,20.72
2016-02-29T08:47:53.383Z,22.36
2016-02-29T08:48:53.355Z,22.46
2016-02-29T08:49:53.357Z,22.57
2016-02-29T08:50:53.360Z,22.69
2016-02-29T08:51:53.331Z,22.71
2016-02-29T08:52:53.335Z,22.85
2016-02-29T08:53:53.353Z,22.81
2016-02-29T08:54:53.308Z,23.06
2016-02-29T08:55:53.311Z,23.07
2016-02-29T08:56:53.298Z,23.18
2016-02-29T08:57:53.285Z,23.26
2016-02-29T08:58:53.287Z,23.37
2016-02-29T08:59:53.274Z,23.53
2016-02-29T09:00:53.278Z,23.52
2016-02-29T09:01:53.296Z,23.56
2016-02-29T09:02:53.268Z,23.6
2016-02-29T09:18:58.982Z,23.15
2016-02-29T09:19:58.938Z,23.26
2016-02-29T09:20:58.940Z,23.26
2016-02-29T09:21:58.943Z,23.34
2016-02-29T09:22:58.929Z,23.34
2016-02-29T09:23:58.917Z,23.41
2016-02-29T09:24:58.903Z,23.5
2016-02-29T09:25:58.906Z,23.57
2016-02-29T09:26:58.894Z,23.63
2016-02-29T09:27:58.912Z,23.67
2016-02-29T09:28:58.868Z,23.62
2016-02-29T09:29:58.870Z,23.56
2016-02-29T09:30:58.872Z,23.78
2016-02-29T09:31:58.859Z,23.9
2016-02-29T09:32:58.879Z,23.93
2016-02-29T09:33:58.865Z,24.03
2016-02-29T10:19:08.205Z,25.33
2016-02-29T10:20:08.176Z,25.33
2016-02-29T10:21:08.163Z,25.41
2016-02-29T10:22:08.150Z,25.39
2016-02-29T10:23:08.153Z,25.34
2016-02-29T10:24:08.155Z,25.41
2016-02-29T10:25:08.158Z,25.42
2016-02-29T10:26:08.145Z,25.49
2016-02-29T10:27:08.148Z,25.6
2016-02-29T10:28:08.166Z,25.52
2016-02-29T10:29:08.137Z,25.71
2016-02-29T10:30:07.969Z,25.67
2016-02-29T10:31:08.143Z,25.84
2016-02-29T10:32:08.145Z,25.64
2016-02-29T10:33:08.133Z,25.79
2016-02-29T10:48:53.832Z,25.22
2016-02-29T10:49:53.835Z,25.54
2016-02-29T10:50:53.806Z,25.67
2016-02-29T10:51:53.809Z,25.6
2016-02-29T10:52:53.812Z,25.75
2016-02-29T10:53:53.783Z,25.69
2016-02-29T10:54:53.801Z,25.66
2016-02-29T10:55:53.804Z,25.79
2016-02-29T10:56:53.775Z,25.88
2016-02-29T10:57:53.809Z,25.94
2016-02-29T10:58:53.781Z,25.86
2016-02-29T10:59:53.799Z,25.84
2016-02-29T11:00:53.786Z,25.93
2016-02-29T11:01:53.773Z,25.48
2016-02-29T11:02:53.776Z,25.57
2016-02-29T11:03:53.778Z,25.6
2016-02-29T11:04:53.766Z,25.62
2016-02-29T11:05:53.789Z,25.64
2016-02-29T11:19:01.198Z,26.03
2016-02-29T11:20:01.169Z,26.12
2016-02-29T11:21:01.170Z,26.17
2016-02-29T11:22:01.156Z,26.35
2016-02-29T11:23:01.158Z,26.27
2016-02-29T11:24:01.145Z,26.16
2016-02-29T11:25:01.147Z,26
2016-02-29T11:26:01.150Z,26.09
2016-02-29T11:27:01.136Z,26.12
2016-02-29T11:28:01.138Z,25.76
2016-02-29T11:29:01.125Z,26.24
2016-02-29T11:30:01.128Z,26.35
2016-02-29T11:31:01.114Z,26.37
2016-02-29T11:32:01.133Z,26.41
2016-02-29T11:33:01.103Z,26.24
2016-02-29T11:34:01.106Z,25.93
2016-02-29T11:35:01.109Z,25.91
2016-02-29T11:48:31.912Z,25.74
2016-02-29T11:49:32.056Z,25.64
2016-02-29T11:50:32.059Z,25.67
2016-02-29T11:51:32.045Z,25.69
2016-02-29T11:52:32.048Z,25.88
2016-02-29T11:53:32.035Z,25.76
2016-02-29T11:54:32.038Z,25.69
2016-02-29T11:55:32.009Z,25.69
2016-02-29T11:56:32.043Z,25.7
2016-02-29T11:57:32.014Z,25.66
2016-02-29T11:58:32.017Z,25.62
2016-02-29T11:59:32.004Z,25.75
2016-02-29T12:00:31.992Z,25.74
2016-02-29T12:01:32.025Z,25.6
2016-02-29T12:02:31.997Z,25.6
2016-02-29T12:03:31.983Z,25.52
2016-02-29T12:04:31.986Z,25.41
2016-02-29T12:18:18.897Z,24.83
2016-02-29T12:19:18.884Z,24.96
2016-02-29T12:20:18.871Z,24.86
2016-02-29T12:21:18.874Z,24.9
2016-02-29T12:22:18.860Z,25.2
2016-02-29T12:23:18.879Z,25.01
2016-02-29T12:24:18.851Z,24.85
2016-02-29T12:25:18.853Z,24.78
2016-02-29T12:26:18.840Z,24.77
2016-02-29T12:27:18.842Z,24.66
2016-02-29T12:28:18.579Z,24.71
2016-02-29T12:29:18.832Z,24.66
2016-02-29T12:30:18.834Z,24.64
2016-02-29T12:31:18.884Z,24.66
2016-02-29T12:32:18.809Z,24.63
2016-02-29T12:33:18.811Z,24.64
2016-02-29T12:48:33.996Z,23.99
2016-02-29T12:49:34.029Z,23.92
2016-02-29T12:50:34.001Z,23.96
2016-02-29T12:51:33.973Z,23.93
2016-02-29T12:52:33.944Z,23.96
2016-02-29T12:53:33.946Z,24.03
2016-02-29T12:54:33.949Z,23.96
2016-02-29T12:55:33.937Z,23.93
2016-02-29T12:56:33.939Z,23.92
2016-02-29T12:57:33.942Z,23.84
2016-02-29T12:58:33.912Z,23.77
2016-02-29T12:59:33.915Z,23.82
2016-02-29T13:00:33.918Z,23.84
2016-02-29T13:01:33.906Z,23.87
2016-02-29T13:02:33.783Z,23.75
2016-02-29T13:03:33.895Z,23.75
2016-02-29T13:19:06.645Z,21.7
2016-02-29T13:20:06.647Z,21.56
2016-02-29T13:21:06.666Z,21.37
2016-02-29T13:22:06.605Z,21.38
2016-02-29T13:23:06.608Z,21.4
2016-02-29T13:24:06.596Z,21.28
2016-02-29T13:25:06.583Z,21.4
2016-02-29T13:26:06.570Z,21.21
2016-02-29T13:27:06.557Z,21.25
2016-02-29T13:28:06.560Z,21.28
2016-02-29T13:29:06.531Z,21.23
2016-02-29T13:30:06.534Z,21.15
2016-02-29T13:31:06.521Z,21.22
2016-02-29T13:32:06.586Z,21.09
2016-02-29T13:33:06.682Z,21.16
2016-02-29T13:34:06.482Z,21.22
2016-02-29T13:49:59.837Z,21.21
2016-02-29T13:50:59.825Z,21.3
2016-02-29T13:51:59.811Z,21.4
2016-02-29T13:52:59.799Z,21.41
2016-02-29T13:53:59.785Z,21.52
2016-02-29T13:54:59.788Z,21.43
2016-02-29T13:55:59.776Z,21.66
2016-02-29T13:56:59.763Z,21.89
2016-02-29T13:57:59.735Z,21.89
2016-02-29T13:58:59.737Z,22.11
2016-02-29T13:59:59.724Z,22.08
2016-02-29T14:00:59.710Z,21.93
2016-02-29T14:01:59.699Z,21.96
2016-02-29T14:02:59.701Z,22.05
2016-02-29T14:03:59.688Z,22.16
2016-02-29T14:04:59.674Z,22.11
2016-02-29T14:19:33.181Z,22.52
2016-02-29T14:20:33.169Z,22.51
2016-02-29T14:21:33.156Z,22.51
2016-02-29T14:22:33.142Z,22.48
2016-02-29T14:23:33.145Z,22.48
2016-02-29T14:24:33.132Z,22.31
2016-02-29T14:25:33.135Z,22.3
2016-02-29T14:26:33.090Z,22.41
2016-02-29T14:27:33.094Z,22.41
2016-02-29T14:28:33.096Z,22.55
2016-02-29T14:29:33.068Z,22.55
2016-02-29T14:30:33.132Z,22.49
2016-02-29T14:31:33.057Z,22.44
2016-02-29T14:32:33.044Z,22.61
2016-02-29T14:48:47.778Z,21.96
2016-02-29T14:54:10.275Z,20.94
2016-02-29T15:01:14.482Z,21.33
2016-02-29T15:06:14.073Z,21.38
2016-02-29T15:11:14.071Z,21.06
2016-02-29T15:16:13.975Z,21.15
2016-02-29T15:21:13.941Z,21.03
2016-02-29T15:26:13.908Z,20.72
2016-02-29T15:31:13.843Z,20.49
2016-02-29T15:36:13.810Z,20.1
2016-02-29T15:41:13.730Z,19.93
2016-02-29T15:46:13.681Z,19.74
2016-02-29T15:51:13.631Z,19.74
2016-02-29T15:56:44.945Z,19.56
2016-02-29T16:01:13.519Z,19.4
2016-02-29T16:06:13.470Z,19.3
2016-02-29T16:11:13.406Z,19.19
2016-02-29T16:16:13.357Z,19.02
2016-02-29T16:21:13.292Z,18.57
2016-02-29T16:26:13.226Z,18.13
2016-02-29T16:31:13.162Z,17.79
2016-02-29T16:36:13.081Z,17.45
2016-02-29T16:41:13.002Z,17.43
2016-02-29T16:46:12.938Z,16.97
2016-02-29T16:51:12.857Z,17.13
2016-02-29T16:56:12.776Z,17.15
2016-02-29T17:01:12.720Z,16.97
2016-02-29T17:06:12.623Z,16.95
2016-02-29T17:11:12.543Z,17.02
2016-02-29T17:16:12.479Z,17.15
2016-02-29T17:21:12.399Z,17.43
2016-02-29T17:26:12.334Z,17.36
2016-02-29T17:31:12.254Z,17.54
2016-02-29T17:36:12.188Z,17.86
2016-02-29T17:41:12.139Z,17.8
2016-02-29T17:46:12.059Z,17.81
2016-02-29T17:51:11.994Z,17.79
2016-02-29T17:56:11.945Z,17.8
2016-02-29T18:01:11.865Z,17.74
2016-02-29T18:06:11.816Z,17.55
2016-02-29T18:11:11.798Z,17.73
2016-02-29T18:16:11.671Z,17.52
2016-02-29T18:21:11.607Z,17.57
2016-02-29T18:26:11.527Z,17.45
2016-02-29T18:31:11.462Z,17.54
2016-02-29T18:36:11.398Z,17.65
2016-02-29T18:41:11.333Z,17.63
2016-02-29T18:46:11.252Z,17.71
2016-02-29T18:51:11.187Z,17.62
2016-02-29T18:56:11.123Z,17.62
2016-02-29T19:01:11.058Z,17.52
2016-02-29T19:06:10.993Z,17.5
2016-02-29T19:11:10.913Z,17.43
2016-02-29T19:16:10.848Z,17.52
2016-02-29T19:21:10.768Z,17.52
2016-02-29T19:26:10.704Z,17.73
2016-02-29T19:31:10.638Z,17.88
2016-02-29T19:36:10.590Z,17.98
2016-02-29T19:41:10.526Z,17.9
2016-02-29T19:46:10.445Z,17.95
2016-02-29T19:51:10.396Z,17.9
2016-02-29T19:56:10.331Z,17.94
2016-02-29T20:01:10.266Z,17.99
2016-02-29T20:06:10.201Z,17.87
2016-02-29T20:11:10.121Z,17.98
2016-02-29T20:16:10.012Z,17.84
2016-02-29T20:21:09.889Z,17.79
2016-02-29T20:26:09.825Z,17.79
2016-02-29T20:31:09.755Z,17.76
2016-02-29T20:36:09.687Z,17.83
2016-02-29T20:41:09.622Z,17.94
2016-02-29T20:46:09.573Z,17.92
2016-02-29T20:51:09.508Z,17.95
2016-02-29T20:56:09.444Z,17.58
2016-02-29T21:01:09.378Z,17.55
2016-02-29T21:06:09.299Z,17.38
2016-02-29T21:11:09.249Z,17.4
2016-02-29T21:16:09.169Z,17.35
2016-02-29T21:21:09.090Z,17.31
2016-02-29T21:26:09.009Z,17.54
2016-02-29T21:31:08.959Z,17.63
2016-02-29T21:36:08.863Z,17.66
2016-02-29T21:41:08.800Z,17.71
2016-02-29T21:46:08.750Z,17.65
2016-02-29T21:51:08.685Z,17.68
2016-02-29T21:56:08.620Z,17.63
2016-02-29T22:01:08.556Z,17.52
2016-02-29T22:06:08.482Z,17.57
2016-02-29T22:11:08.402Z,17.46
2016-02-29T22:16:08.314Z,17.27
2016-02-29T22:21:08.259Z,17.17
2016-02-29T22:26:08.201Z,16.91
2016-02-29T22:31:07.967Z,16.76
2016-02-29T22:36:08.052Z,16.62
2016-02-29T22:41:07.973Z,16.48
2016-02-29T22:46:07.892Z,16.44
2016-02-29T22:51:07.828Z,16.21
2016-02-29T22:56:07.746Z,16
2016-02-29T23:01:07.651Z,15.92
2016-02-29T23:06:07.601Z,15.75
2016-02-29T23:11:07.506Z,15.63
2016-02-29T23:16:07.425Z,15.51
2016-02-29T23:21:07.330Z,15.52
2016-02-29T23:26:07.249Z,15.31
2016-02-29T23:31:07.168Z,15.35
2016-02-29T23:36:07.104Z,15.25
2016-02-29T23:41:07.009Z,15.26
2016-02-29T23:46:06.912Z,15.27
2016-02-29T23:51:06.847Z,15.2
2016-02-29T23:56:06.752Z,15.02
